Tiempo atmosférico en la estación meteorológica de Doña Mencia, Córdoba (650 m.)



Fecha
DESCASC
Temp. máxima en grados centígrados (hora)
DESCASC
Temp. mínima en grados centígrados (hora)
DESCASC
Temp. media en grados centígrados
DESCASC
Racha de viento máxima en m/sg (hora)
DESCASC
Velocidad máxima media en intervalos de 10 minutos(hora)
DESCASC
Precipitaciones diarias en mm
DESCASC
Precipitaciones de 00:00 a 06:00 en mm
DESCASC
Precipitaciones de 06:00 a 12:00 en mm
DESCASC
Precipitaciones de 12:00 a 18:00 en mm
DESCASC
Precipitaciones de 18:00 a 24:00 en mm
DESCASC
05-01-2020 14.4 (16:00) 7 (00:00) 10.7 3.61 (13:50) 2.78 (22:50) 0 0 0 0 0
29-12-2019 17.2 (14:50) 9.4 (00:00) 13.3 3.89 (14:10) 2.78 (22:20) 0 0 0 0 0
03-01-2020 11.5 (12:40) 8 (00:00) 9.8 3.89 (13:10) 2.5 (13:10) 0 0 0 0 0
02-01-2020 15.5 (16:20) 7.8 (00:00) 11.7 4.72 (14:40) 2.78 (14:40) 0 0 0 0 0
30-12-2019 15.4 (16:20) 7.8 (00:00) 11.6 5 (03:00) 3.61 (03:00) 0 0 0 0 0
01-01-2020 17.3 (15:50) 8.4 (00:00) 12.8 5.28 (07:40) 3.06 (07:40) 0 0 0 0 0
13-01-2020 13.8 (15:10) 6.6 (00:00) 10.2 5.56 (13:50) 3.61 (15:40) 0 0 0 0 0
14-01-2020 11.7 (16:00) 5.9 (00:00) 8.8 5.83 (18:10) 3.61 (18:10) 0 0 0 0 0
09-01-2020 14.9 (14:50) 8.2 (00:00) 11.5 5.83 (12:50) 3.61 (12:30) 0 0 0 0 0
31-12-2019 15.8 (15:10) 7.5 (00:00) 11.7 5.83 (05:20) 4.44 (05:20) 0 0 0 0 0
08-01-2020 19.3 (15:30) 10.1 (00:00) 14.7 5.83 (06:40) 3.89 (04:00) 0 0 0 0 0
06-01-2020 15.1 (15:40) 6.3 (00:00) 10.7 5.83 (20:20) 4.72 (20:20) 0 0 0 0 0
25-12-2019 20.9 (16:10) 15 (00:00) 17.9 6.11 (00:10) 5.28 (00:20) 0 0 0 0 0
07-01-2020 17.2 (16:20) 7.6 (00:00) 12.4 6.11 (03:10) 5.28 (03:20) 0 0 0 0 0
04-01-2020 12.9 (16:20) 6.7 (00:00) 9.8 6.39 (02:00) 2.78 (01:50) 0 0 0 0 0
28-12-2019 19.6 (13:10) 12.4 (00:00) 16 6.39 (21:20) 5.28 (21:10) 0 0 0 0 0
11-01-2020 14.9 (15:30) 4 (00:00) 9.4 6.39 (13:50) 4.17 (06:30) 0 0 0 0 0
15-01-2020 15.6 (15:00) 6.3 (00:00) 11 6.67 (12:20) 3.89 (15:10) 0 0 0 0 0
16-01-2020 17.3 (14:00) 8.2 (00:00) 12.7 6.67 (15:20) 4.17 (15:50) 0 0 0 0 0
26-12-2019 22.1 (12:30) 13.8 (00:00) 18 6.67 (11:00) 5.56 (20:20) 0 0 0 0 0
12-01-2020 15.1 (14:30) 6.6 (00:00) 10.9 6.67 (13:50) 4.17 (22:20) 0 0 0 0 0
27-12-2019 21.5 (15:50) 14.4 (00:00) 17.9 7.22 (08:30) 5 (08:30) 0 0 0 0 0
22-01-2020 11.5 (15:00) 6.4 (00:00) 9 9.17 (19:20) 5.28 (23:00) 0.7 0.2 0.5 0 0
10-01-2020 12.9 (15:20) 7.5 (00:00) 10.2 10 (17:40) 5 (17:10) 0 0 0 0 0
21-01-2020 10.3 (15:30) 3.9 (00:00) 7.1 11.11 (13:30) 5 (14:10) 0.7 0 0 0 0.7
23-01-2020 11.8 (13:20) 7.2 (00:00) 9.5 11.67 (09:20) 6.39 (07:00) 9.8 0 4.5 3 2.3
17-01-2020 15.1 (16:20) 10.3 (00:00) 12.7 13.61 (23:10) 5.28 (23:40) 0 0 0 0 0
19-01-2020 11.4 (00:30) 4.4 (00:00) 7.9 14.72 (20:30) 5.83 (20:20) 1.8 0 0.3 1.1 0.4
20-01-2020 9.1 (16:40) 1.4 (00:00) 5.3 15.28 (03:40) 6.94 (03:30) 0.1 0 0.1 0 0
18-01-2020 14.1 (15:10) 9.2 (00:00) 11.7 16.67 (14:20) 9.17 (14:00) 6.2 0 3.7 0 2.5

Gráficas

Temp. máximas Temp. mínimas Temp. medias Precipitaciones Rachas de viento máximas Velocidades máximas media en intervalos de 10 minutos

Datos horarios

Fecha y hora oficial Temperatura (ºC) Velocidad del viento (km/h) Dirección del viento Racha (km/h) Dirección de racha Precipitación (mm) Presión (hPa) Tendencia (hPa) Humedad (%)
2020-01-23 23:00:00 8.2 6 Oeste 13 Oeste 0.6 -- -- 97
2020-01-23 22:00:00 8.9 0 Calma 13 Noroeste 0.1 -- -- 86
2020-01-23 21:00:00 9.5 8 Este 17 Sur 0 -- -- 74
2020-01-23 20:00:00 9.7 5 Este 22 Este 0 -- -- 76
2020-01-23 19:00:00 9.5 13 Este 23 Sudeste 0.1 -- -- 80
2020-01-23 18:00:00 8.8 12 Este 27 Sudeste 0.1 -- -- 96
2020-01-23 17:00:00 9.7 6 Sudeste 17 Este 0.4 -- -- 89
2020-01-23 16:00:00 9.2 4 Oeste 14 Oeste 0.5 -- -- 91
2020-01-23 15:00:00 10 5 Sudoeste 20 Sur 0.7 -- -- 74
2020-01-23 14:00:00 10.9 2 Sur 22 Sudeste 0 -- -- 70
2020-01-23 13:00:00 9.8 16 Este 27 Sur 1.3 -- -- 87
2020-01-23 12:00:00 9.4 7 Sudoeste 37 Sur 0.2 -- -- 71
2020-01-23 11:00:00 10.4 18 Sur 39 Sur 0.1 -- -- 63
2020-01-23 10:00:00 10.7 14 Sur 42 Sur 0 -- -- 66
2020-01-23 09:00:00 8.8 17 Sur 35 Sur 0.1 -- -- 74
2020-01-23 08:00:00 8.2 15 Sudeste 32 Sur 1.8 -- -- 79
2020-01-23 07:00:00 7.5 23 Sur 38 Sur 2.3 -- -- 84
2020-01-23 06:00:00 8 11 Este 21 Este 0 -- -- 72
2020-01-23 05:00:00 7.9 10 Este 19 Este 0 -- -- 71
2020-01-23 04:00:00 8.5 5 Nordeste 13 Este 0 -- -- 68
2020-01-23 03:00:00 7.6 5 Este 13 Sudeste 0 -- -- 69
2020-01-23 02:00:00 8.4 12 Este 21 Sudeste 0 -- -- 68
2020-01-23 01:00:00 9.3 8 Sur 21 Este 0 -- -- 63
2020-01-23 00:00:00 8 14 Este 30 Sudeste 0 -- -- 71
2020-01-22 23:00:00 8 19 Este 30 Este 0 -- -- 71
2020-01-22 22:00:00 8.2 14 Sur 28 Este 0 -- -- 68
2020-01-22 21:00:00 9 10 Sur 24 Sur 0 -- -- 66
2020-01-22 20:00:00 8.3 9 Sur 33 Sur 0 -- -- 70
2020-01-22 19:00:00 9.1 10 Sur 25 Sur 0 -- -- 66
2020-01-22 18:00:00 9.8 8 Sudeste 24 Sur 0 -- -- 65
2020-01-22 17:00:00 9.7 6 Sudeste 17 Sudeste 0 -- -- 74
2020-01-22 16:00:00 10.5 4 Sudoeste 17 Noroeste 0 -- -- 71
2020-01-22 15:00:00 10.9 3 Sudeste 21 Sudeste 0 -- -- 64
2020-01-22 14:00:00 11.1 9 Sudeste 22 Sudeste 0 -- -- 62
2020-01-22 13:00:00 10.5 9 Sudeste 15 Este 0 -- -- 68
2020-01-22 12:00:00 9 6 Nordeste 16 Este 0 -- -- 76
2020-01-22 11:00:00 7.9 7 Este 18 Este 0 -- -- 85
2020-01-22 10:00:00 7.3 9 Este 17 Este 0 -- -- 88
2020-01-22 09:00:00 6.8 13 Este 28 Este 0.4 -- -- 91
2020-01-22 08:00:00 7.1 8 Sudeste 17 Este 0 -- -- 87
2020-01-22 07:00:00 6.5 9 Este 13 Este 0.1 -- -- 92
2020-01-22 06:00:00 6.5 2 Norte 9 Este 0.1 -- -- 91
2020-01-22 05:00:00 7.2 0 Calma 20 Sudeste 0 -- -- 84
2020-01-22 04:00:00 7.1 13 Sudeste 21 Este 0 -- -- 84
2020-01-22 03:00:00 7 10 Este 18 Este 0 -- -- 87
2020-01-22 02:00:00 6.9 12 Este 22 Este 0 -- -- 88
2020-01-22 01:00:00 6.9 8 Este 15 Este 0.1 -- -- 90
2020-01-22 00:00:00 7.1 7 Este 22 Sudeste 0.3 -- -- 88
2020-01-21 23:00:00 7.4 8 Este 29 Este 0 -- -- 84
2020-01-21 22:00:00 7.4 7 Este 20 Este 0 -- -- 86
2020-01-21 21:00:00 6.1 13 Este 17 Este 0.1 -- -- 95
2020-01-21 20:00:00 6.6 7 Este 17 Este 0.3 -- -- 92
2020-01-21 19:00:00 7.2 5 Este 14 Este 0 -- -- 80
2020-01-21 18:00:00 7.9 4 Este 15 Este 0 -- -- 74
2020-01-21 17:00:00 8.4 4 Nordeste 14 Nordeste 0 -- -- 70
2020-01-21 16:00:00 8.7 5 Nordeste 15 Nordeste 0 -- -- 68
2020-01-21 15:00:00 8.8 7 Nordeste 27 Sudeste 0 -- -- 69
2020-01-21 14:00:00 8.8 16 Sudeste 40 Sudeste 0 -- -- 71
2020-01-21 13:00:00 6.8 4 Noroeste 27 Nordeste 0 -- -- 79
2020-01-21 12:00:00 6.2 7 Nordeste 29 Nordeste 0 -- -- 81
2020-01-21 11:00:00 5.3 0 Calma 27 Este 0 -- -- 88
2020-01-21 10:00:00 4.9 13 Sudeste 25 Sudeste 0 -- -- 90
2020-01-21 09:00:00 4.7 5 Noroeste 26 Nordeste 0 -- -- 89
2020-01-21 08:00:00 4.5 0 Calma 38 Este 0 -- -- 89
2020-01-21 07:00:00 4 15 Sudeste 32 Sudeste 0 -- -- 91
2020-01-21 06:00:00 3.9 13 Sudeste 26 Sudeste 0 -- -- 90
2020-01-21 05:00:00 4.4 0 Calma 21 Nordeste 0 -- -- 87
2020-01-21 04:00:00 4.7 9 Sur 25 Sudeste 0 -- -- 87
2020-01-21 03:00:00 5 5 Oeste 16 Norte 0 -- -- 85
2020-01-21 02:00:00 5.5 3 Oeste 18 Sudoeste 0 -- -- 82
2020-01-21 01:00:00 5.3 8 Nordeste -- -- 0 -- -- 82
2020-01-21 00:00:00 5.6 10 Nordeste 34 Nordeste 0 -- -- 79
2020-01-20 23:00:00 5.9 8 Nordeste 30 Este 0 -- -- 79
2020-01-20 22:00:00 5.8 3 Noroeste 22 Nordeste 0 -- -- 77
2020-01-20 21:00:00 6.1 3 Norte 34 Nordeste 0 -- -- 74
2020-01-20 20:00:00 6.6 16 Nordeste 32 Nordeste 0 -- -- 69
2020-01-20 19:00:00 7.5 8 Nordeste 37 Nordeste 0 -- -- 66
2020-01-20 18:00:00 7.8 11 Nordeste 35 Nordeste 0 -- -- 62
2020-01-20 17:00:00 7.9 14 Nordeste 35 Nordeste 0 -- -- 63
2020-01-20 16:00:00 7.6 13 Nordeste 41 Nordeste 0 -- -- 66
2020-01-20 15:00:00 7.8 14 Nordeste 37 Norte 0 -- -- 64
2020-01-20 14:00:00 5.8 10 Oeste 38 Nordeste 0 -- -- 73
2020-01-20 13:00:00 5.4 14 Nordeste 46 Nordeste 0 -- -- 77
2020-01-20 12:00:00 3 4 Norte 40 Este 0 -- -- 84
2020-01-20 11:00:00 1.9 11 Nordeste 45 Este 0.1 -- -- 92
2020-01-20 10:00:00 2.1 7 Noroeste 32 Sudoeste 0 -- -- 89
2020-01-20 09:00:00 1.4 6 Noroeste 46 Este 0 -- -- 93
2020-01-20 08:00:00 1.7 11 Nordeste 49 Este 0 -- -- 85
2020-01-20 07:00:00 2.7 3 Norte 44 Nordeste 0 -- -- 74
2020-01-20 06:00:00 2.6 0 Calma 42 Nordeste 0 -- -- 80
2020-01-20 05:00:00 2.3 7 Sur 42 Nordeste 0 -- -- 93
2020-01-20 04:00:00 2.4 15 Nordeste 55 Nordeste 0 -- -- 89
2020-01-20 03:00:00 3.7 18 Nordeste 47 Nordeste 0 -- -- 85
2020-01-20 02:00:00 3.9 8 Nordeste 53 Este 0 -- -- 87
2020-01-20 01:00:00 4 22 Nordeste 49 Nordeste 0 -- -- 91
2020-01-20 00:00:00 4.5 7 Norte 46 Nordeste 0 -- -- 91
2020-01-19 23:00:00 4.6 7 Nordeste 35 Este 0 -- -- 94
2020-01-19 22:00:00 4.8 6 Noroeste 45 Este 0 -- -- 96
2020-01-19 21:00:00 4.9 4 Este 53 Este 0 -- -- 95
2020-01-19 20:00:00 5.5 17 Nordeste 41 Nordeste 0.2 -- -- 95
2020-01-19 19:00:00 6.5 13 Nordeste 32 Nordeste 0.2 -- -- 85
2020-01-19 18:00:00 7.5 11 Nordeste 27 Norte 0 -- -- 78
2020-01-19 17:00:00 7.5 9 Nordeste 26 Este 0 -- -- 85
2020-01-19 16:00:00 7.5 9 Este 25 Este 0.4 -- -- 86
2020-01-19 15:00:00 8.3 4 Este 22 Norte 0 -- -- 87
2020-01-19 14:00:00 7.7 6 Norte 22 Norte 0.7 -- -- 92
2020-01-19 13:00:00 8.7 6 Noroeste 29 Noroeste 0 -- -- 89
2020-01-19 12:00:00 8.9 8 Noroeste 20 Noroeste 0 -- -- 93
2020-01-19 11:00:00 7.1 9 Oeste 17 Noroeste 0 -- -- 99
2020-01-19 10:00:00 6.8 5 Oeste 14 Noroeste 0.1 -- -- 99
2020-01-19 09:00:00 6.8 5 Noroeste 11 Noroeste 0.1 -- -- 99
2020-01-19 08:00:00 7 7 Noroeste 12 Oeste 0.1 -- -- 98
2020-01-19 07:00:00 7.4 5 Noroeste 13 Noroeste 0 -- -- 95
2020-01-19 06:00:00 7.5 10 Noroeste 31 Oeste 0 -- -- 94
2020-01-19 05:00:00 8.2 17 Noroeste 27 Noroeste 0 -- -- 94
2020-01-19 04:00:00 9.1 13 Oeste 24 Noroeste 0 -- -- 99
2020-01-19 03:00:00 9.1 12 Oeste 27 Noroeste 0 -- -- 88
2020-01-19 02:00:00 10 17 Noroeste 30 Oeste 0 -- -- 99
2020-01-19 01:00:00 10.8 15 Noroeste 35 Noroeste 0 -- -- 99
2020-01-19 00:00:00 11.3 22 Noroeste 45 Oeste 0 -- -- 99
2020-01-18 23:00:00 12.7 26 Oeste 50 Oeste 0.2 -- -- 99
2020-01-18 22:00:00 12.4 24 Oeste 46 Oeste 1.2 -- -- 99
2020-01-18 21:00:00 12.8 24 Oeste 48 Sudoeste 0.9 -- -- 99
2020-01-18 20:00:00 12.5 27 Oeste 51 Oeste 0.2 -- -- 99
2020-01-18 19:00:00 12.9 30 Oeste 51 Oeste 0 -- -- 99
2020-01-18 18:00:00 13.3 28 Oeste 48 Oeste 0 -- -- 96
2020-01-18 17:00:00 12.7 32 Oeste 54 Oeste 0 -- -- 94
2020-01-18 16:00:00 13 26 Oeste 58 Sudoeste 0 -- -- 83
2020-01-18 15:00:00 13.8 30 Oeste 60 Oeste 0 -- -- 73
2020-01-18 14:00:00 13.5 33 Oeste 53 Oeste 0 -- -- 67
2020-01-18 13:00:00 12.4 21 Oeste 34 Oeste 0 -- -- 68
2020-01-18 12:00:00 11.1 4 Noroeste 23 Noroeste 0.3 -- -- 79
2020-01-18 11:00:00 9.8 4 Sudeste 8 Oeste 2.3 -- -- 89
2020-01-18 10:00:00 10.1 2 Norte 7 Sudeste 1.1 -- -- 83
2020-01-18 09:00:00 10.2 2 Nordeste 9 Norte 0 -- -- 74
2020-01-18 08:00:00 10.6 6 Norte 15 Noroeste 0 -- -- 71
2020-01-18 07:00:00 11.3 11 Este 19 Este 0 -- -- 61
2020-01-18 06:00:00 11 5 Este 8 Noroeste 0 -- -- 70
2020-01-18 05:00:00 10.1 5 Noroeste 10 Noroeste 0 -- -- 81
2020-01-18 04:00:00 9.9 7 Noroeste 12 Norte 0 -- -- 79
2020-01-18 03:00:00 9.4 8 Norte 14 Norte 0 -- -- 80
2020-01-18 02:00:00 9.7 0 Calma 10 Norte 0 -- -- 78
2020-01-18 01:00:00 10 5 Norte 18 Este 0 -- -- 73
2020-01-18 00:00:00 11.3 12 Este 49 Sudeste 0 -- -- 70
2020-01-17 23:00:00 10.9 11 Este 15 Este 0 -- -- 74
2020-01-17 22:00:00 10.9 7 Este 10 Este 0 -- -- 73
2020-01-17 21:00:00 11.1 3 Este 4 Este 0 -- -- 73
2020-01-17 20:00:00 11.3 3 Noroeste 6 Este 0 -- -- 73
2020-01-17 19:00:00 11.4 4 Nordeste 8 Sudeste 0 -- -- 72
2020-01-17 18:00:00 14.4 3 Sudeste 10 Sudoeste 0 -- -- 65
2020-01-17 17:00:00 15 5 Oeste 10 Oeste 0 -- -- 65
2020-01-17 16:00:00 14.6 6 Noroeste 12 Norte 0 -- -- 68
2020-01-17 15:00:00 14.6 7 Oeste 12 Oeste 0 -- -- 67
2020-01-17 14:00:00 14.5 5 Sudoeste 19 Noroeste 0 -- -- 70
2020-01-17 13:00:00 14.2 6 Oeste 16 Oeste 0 -- -- 72
2020-01-17 12:00:00 12.3 8 Noroeste 17 Noroeste 0 -- -- 79
2020-01-17 11:00:00 11.8 9 Noroeste 18 Oeste 0 -- -- 79
2020-01-17 10:00:00 11 7 Noroeste 16 Noroeste 0 -- -- 76
2020-01-17 09:00:00 10.6 5 Oeste 14 Oeste 0 -- -- 68
2020-01-17 08:00:00 11 10 Oeste 17 Oeste 0 -- -- 65
2020-01-17 07:00:00 11.1 6 Oeste 14 Oeste 0 -- -- 58
2020-01-17 06:00:00 10.8 7 Noroeste 19 Noroeste 0 -- -- 48
2020-01-17 05:00:00 11.2 9 Noroeste 18 Oeste 0 -- -- 46
2020-01-17 04:00:00 10.9 12 Oeste 19 Oeste 0 -- -- 48
2020-01-17 03:00:00 10.8 10 Oeste 22 Oeste 0 -- -- 51
2020-01-17 02:00:00 11.1 11 Oeste 23 Oeste 0 -- -- 52
2020-01-17 01:00:00 10.4 5 Oeste 14 Oeste 0 -- -- 61
2020-01-17 00:00:00 10.8 6 Oeste 14 Oeste 0 -- -- 53
2020-01-16 23:00:00 10.8 5 Oeste 16 Noroeste 0 -- -- 50
2020-01-16 22:00:00 12.3 6 Noroeste 13 Noroeste 0 -- -- 47
2020-01-16 21:00:00 11.8 0 Calma 11 Oeste 0 -- -- 45
2020-01-16 20:00:00 11.9 3 Oeste 10 Oeste 0 -- -- 43
2020-01-16 19:00:00 12 5 Noroeste 11 Oeste 0 -- -- 42
2020-01-16 18:00:00 14.3 8 Noroeste 17 Oeste 0 -- -- 39
2020-01-16 17:00:00 15.5 9 Oeste 22 Oeste 0 -- -- 42
2020-01-16 16:00:00 16 14 Oeste 24 Noroeste 0 -- -- 37
2020-01-16 15:00:00 16.3 14 Oeste 23 Oeste 0 -- -- 35
2020-01-16 14:00:00 16.8 9 Sudoeste 21 Oeste 0 -- -- 33
2020-01-16 13:00:00 16.8 8 Sudoeste 20 Oeste 0 -- -- 35
2020-01-16 12:00:00 15.3 8 Oeste 14 Noroeste 0 -- -- 42
2020-01-16 11:00:00 14.7 3 Noroeste 10 Sur 0 -- -- 41
2020-01-16 10:00:00 12.3 2 Noroeste 7 Sudeste 0 -- -- 48
2020-01-16 09:00:00 10 2 Este 8 Este 0 -- -- 52
2020-01-16 08:00:00 10.2 4 Noroeste 10 Sudeste 0 -- -- 53
2020-01-16 07:00:00 9.4 8 Este 14 Este 0 -- -- 55
2020-01-16 06:00:00 10.5 3 Este 5 Este 0 -- -- 56
2020-01-16 05:00:00 9.4 2 Este 18 Este 0 -- -- 66
2020-01-16 04:00:00 9.1 10 Este 14 Este 0 -- -- 66
2020-01-16 03:00:00 10.3 4 Nordeste 6 Este 0 -- -- 64
2020-01-16 02:00:00 11.2 2 Este 5 Este 0 -- -- 62
2020-01-16 01:00:00 11.2 0 Calma 5 Este 0 -- -- 61
2020-01-16 00:00:00 10.9 3 Sudeste 5 Este 0 -- -- 58
2020-01-15 23:00:00 11.5 0 Calma 5 Este 0 -- -- 55
2020-01-15 22:00:00 11.1 0 Calma 8 Sudeste 0 -- -- 55
2020-01-15 21:00:00 10.9 5 Este 15 Este 0 -- -- 61
2020-01-15 20:00:00 10.7 9 Este 17 Este 0 -- -- 67
2020-01-15 19:00:00 10.5 10 Este 12 Este 0 -- -- 66
2020-01-15 18:00:00 13.7 4 Sudoeste 16 Noroeste 0 -- -- 46
2020-01-15 17:00:00 15.1 10 Oeste 19 Noroeste 0 -- -- 41
2020-01-15 16:00:00 15.1 11 Noroeste 21 Noroeste 0 -- -- 42
2020-01-15 15:00:00 14.6 12 Oeste 21 Noroeste 0 -- -- 43
2020-01-15 14:00:00 14.3 9 Noroeste 21 Noroeste 0 -- -- 47
2020-01-15 13:00:00 14.4 13 Oeste 24 Oeste 0 -- -- 43
2020-01-15 12:00:00 13.9 5 Oeste 12 Oeste 0 -- -- 50
2020-01-15 11:00:00 12.9 3 Oeste 5 Noroeste 0 -- -- 55
2020-01-15 10:00:00 11.1 0 Calma 5 Noroeste 0 -- -- 63
2020-01-15 09:00:00 10 0 Calma 6 Nordeste 0 -- -- 60
2020-01-15 08:00:00 9.9 5 Nordeste 11 Nordeste 0 -- -- 63
2020-01-15 07:00:00 9.2 0 Calma 4 Sudeste 0 -- -- 69
2020-01-15 06:00:00 8.3 0 Calma 10 Este 0 -- -- 71
2020-01-15 05:00:00 7.7 4 Este 9 Nordeste 0 -- -- 72
2020-01-15 04:00:00 6.3 8 Este 10 Este 0 -- -- 77
2020-01-15 03:00:00 8.3 0 Calma 5 Nordeste 0 -- -- 72
2020-01-15 02:00:00 8.5 4 Noroeste 7 Noroeste 0 -- -- 71
2020-01-15 01:00:00 8.2 0 Calma 7 Noroeste 0 -- -- 71
2020-01-15 00:00:00 8 4 Noroeste 10 Noroeste 0 -- -- 70
2020-01-14 23:00:00 8.1 3 Noroeste 5 Noroeste 0 -- -- 71
2020-01-14 22:00:00 7.8 0 Calma 5 Noroeste 0 -- -- 72
2020-01-14 21:00:00 8 0 Calma 6 Norte 0 -- -- 71
2020-01-14 20:00:00 8.4 0 Calma 6 Noroeste 0 -- -- 70
2020-01-14 19:00:00 8.4 0 Calma 21 Sudeste 0 -- -- 69
2020-01-14 18:00:00 9.7 4 Sudeste 10 Noroeste 0 -- -- 65
2020-01-14 17:00:00 10.6 7 Oeste 11 Oeste 0 -- -- 63
2020-01-14 16:00:00 11.6 5 Noroeste 14 Noroeste 0 -- -- 64
2020-01-14 15:00:00 10.3 5 Norte 15 Norte 0 -- -- 68
2020-01-14 14:00:00 10.2 8 Noroeste 18 Noroeste 0 -- -- 68
2020-01-14 13:00:00 10.5 6 Noroeste 13 Noroeste 0 -- -- 71
2020-01-14 12:00:00 10 5 Noroeste 11 Noroeste 0 -- -- 73
2020-01-14 11:00:00 9.2 2 Oeste 4 Oeste 0 -- -- 84
2020-01-14 10:00:00 8.3 0 Calma 3 Este 0 -- -- 92
2020-01-14 09:00:00 6.7 0 Calma 5 Sudeste 0 -- -- 94
2020-01-14 08:00:00 6 0 Calma 4 Noroeste 0 -- -- 92
2020-01-14 07:00:00 6.9 5 Noroeste 8 Noroeste 0 -- -- 85
2020-01-14 06:00:00 7.2 0 Calma 7 Este 0 -- -- 84
2020-01-14 05:00:00 6.5 6 Este 10 Este 0 -- -- 90
2020-01-14 04:00:00 7.3 0 Calma 7 Norte 0 -- -- 86
2020-01-14 03:00:00 7.6 4 Norte 6 Norte 0 -- -- 82
2020-01-14 02:00:00 7.8 0 Calma 4 Noroeste 0 -- -- 79
2020-01-14 01:00:00 7.9 0 Calma 4 Este 0 -- -- 79
2020-01-14 00:00:00 7.4 3 Sudeste 6 Sudeste 0 -- -- 77
2020-01-13 23:00:00 7.7 0 Calma 6 Norte 0 -- -- 74
2020-01-13 22:00:00 8 0 Calma 3 Este 0 -- -- 68
2020-01-13 21:00:00 8.2 2 Sudeste 4 Sudeste 0 -- -- 69
2020-01-13 20:00:00 8.2 2 Sudeste 7 Noroeste 0 -- -- 66
2020-01-13 19:00:00 9.2 0 Calma 8 Sudoeste 0 -- -- 59
2020-01-13 18:00:00 11.1 0 Calma 10 Oeste 0 -- -- 56
2020-01-13 17:00:00 12.6 9 Oeste 17 Noroeste 0 -- -- 48
2020-01-13 16:00:00 13 12 Oeste 20 Noroeste 0 -- -- 43
2020-01-13 15:00:00 13.5 8 Oeste 20 Oeste 0 -- -- 42
2020-01-13 14:00:00 12.8 9 Noroeste 20 Noroeste 0 -- -- 46
2020-01-13 13:00:00 12 7 Oeste 14 Noroeste 0 -- -- 52
2020-01-13 12:00:00 11.7 4 Oeste 10 Oeste 0 -- -- 55
2020-01-13 11:00:00 10.2 2 Oeste 5 Sudeste 0 -- -- 59
2020-01-13 10:00:00 8.8 0 Calma 10 Este 0 -- -- 66
2020-01-13 09:00:00 6.8 6 Nordeste 10 Este 0 -- -- 68
2020-01-13 08:00:00 6.9 4 Nordeste 9 Este 0 -- -- 67
2020-01-13 07:00:00 8.1 0 Calma 6 Este 0 -- -- 64
2020-01-13 06:00:00 7.6 2 Nordeste 5 Sudeste 0 -- -- 64
2020-01-13 05:00:00 7.3 2 Sudeste 5 Este 0 -- -- 64
2020-01-13 04:00:00 8.3 0 Calma 9 Norte 0 -- -- 62
2020-01-13 03:00:00 7.7 7 Norte 11 Noroeste 0 -- -- 58
2020-01-13 02:00:00 8.4 6 Noroeste 10 Noroeste 0 -- -- 58
2020-01-13 01:00:00 8.4 3 Sudeste 14 Este 0 -- -- 59
2020-01-13 00:00:00 8.5 11 Este 13 Este 0 -- -- 57
2020-01-12 23:00:00 8.4 10 Sudeste 18 Sudeste 0 -- -- 56
2020-01-12 22:00:00 8.3 13 Sudeste 15 Sudeste 0 -- -- 54
2020-01-12 21:00:00 8.5 9 Este 13 Este 0 -- -- 66
2020-01-12 20:00:00 8.5 12 Sudeste 14 Este 0 -- -- 67
2020-01-12 19:00:00 9.2 7 Este 10 Este 0 -- -- 60
2020-01-12 18:00:00 12.4 6 Nordeste 13 Nordeste 0 -- -- 51
2020-01-12 17:00:00 14.2 2 Sudeste 12 Nordeste 0 -- -- 48
2020-01-12 16:00:00 14.3 3 Este 13 Sudeste 0 -- -- 51
2020-01-12 15:00:00 14.4 3 Este 15 Sudeste 0 -- -- 52
2020-01-12 14:00:00 14.1 6 Sudeste 24 Norte 0 -- -- 57
2020-01-12 13:00:00 12.1 5 Noroeste 20 Oeste 0 -- -- 66
2020-01-12 12:00:00 11.7 5 Oeste 11 Noroeste 0 -- -- 68
2020-01-12 11:00:00 11.3 2 Oeste 5 Sudoeste 0 -- -- 71
2020-01-12 10:00:00 10.1 0 Calma 8 Este 0 -- -- 78
2020-01-12 09:00:00 7.3 5 Este 9 Nordeste 0 -- -- 82
2020-01-12 08:00:00 7.1 6 Nordeste 9 Este 0 -- -- 82
2020-01-12 07:00:00 7.8 0 Calma 4 Nordeste 0 -- -- 82
2020-01-12 06:00:00 7.7 2 Noroeste 5 Noroeste 0 -- -- 78
2020-01-12 05:00:00 8.5 0 Calma 6 Nordeste 0 -- -- 78
2020-01-12 04:00:00 7.9 5 Norte 11 Noroeste 0 -- -- 82
2020-01-12 03:00:00 7.9 2 Norte 10 Noroeste 0 -- -- 79
2020-01-12 02:00:00 7.9 6 Noroeste 9 Norte 0 -- -- 74
2020-01-12 01:00:00 8.5 6 Noroeste 13 Noroeste 0 -- -- 67
2020-01-12 00:00:00 9.2 4 Noroeste 8 Norte 0 -- -- 58
2020-01-11 23:00:00 10.4 3 Este 9 Este 0 -- -- 56
2020-01-11 22:00:00 9.1 6 Este 13 Este 0 -- -- 63
2020-01-11 21:00:00 8.8 10 Este 13 Este 0 -- -- 65
2020-01-11 20:00:00 9.1 7 Nordeste 11 Este 0 -- -- 65
2020-01-11 19:00:00 8.6 8 Este 10 Este 0 -- -- 62
2020-01-11 18:00:00 13.3 5 Este 12 Sudeste 0 -- -- 48
2020-01-11 17:00:00 14.8 0 Calma 13 Este 0 -- -- 47
2020-01-11 16:00:00 14.5 6 Sudeste 14 Sudeste 0 -- -- 48
2020-01-11 15:00:00 13.2 6 Noroeste 18 Oeste 0 -- -- 51
2020-01-11 14:00:00 12.8 6 Oeste 23 Oeste 0 -- -- 51
2020-01-11 13:00:00 12.8 0 Calma 18 Sudeste 0 -- -- 50
2020-01-11 12:00:00 12.1 4 Este 17 Este 0 -- -- 50
2020-01-11 11:00:00 12 8 Este 17 Este 0 -- -- 52
2020-01-11 10:00:00 8.8 8 Este 14 Este 0 -- -- 62
2020-01-11 09:00:00 5.9 13 Este 17 Este 0 -- -- 66
2020-01-11 08:00:00 4 0 Calma 18 Este 0 -- -- 72
2020-01-11 07:00:00 5.6 14 Este 17 Este 0 -- -- 64
2020-01-11 06:00:00 5.8 13 Este 15 Este 0 -- -- 65
2020-01-11 05:00:00 5.5 8 Este 14 Este 0 -- -- 66
2020-01-11 04:00:00 5.8 12 Este 17 Este 0 -- -- 64
2020-01-11 03:00:00 6.2 10 Este 13 Este 0 -- -- 62
2020-01-11 02:00:00 7.3 6 Este 13 Este 0 -- -- 59
2020-01-11 01:00:00 7.2 0 Calma 14 Sudeste 0 -- -- 59
2020-01-11 00:00:00 7.6 7 Sudeste 16 Sur 0 -- -- 58
2020-01-10 23:00:00 8 5 Oeste 27 Sudeste 0 -- -- 58
2020-01-10 22:00:00 8.1 5 Sur 25 Este 0 -- -- 58
2020-01-10 21:00:00 8.1 4 Noroeste 14 Oeste 0 -- -- 58
2020-01-10 20:00:00 8.7 2 Sudoeste 25 Este 0 -- -- 53
2020-01-10 19:00:00 9.5 10 Nordeste 24 Nordeste 0 -- -- 51
2020-01-10 18:00:00 11.2 12 Nordeste 36 Nordeste 0 -- -- 46
2020-01-10 17:00:00 12.5 13 Nordeste 30 Nordeste 0 -- -- 47
2020-01-10 16:00:00 12.6 14 Nordeste 33 Nordeste 0 -- -- 52
2020-01-10 15:00:00 12.4 12 Nordeste 30 Nordeste 0 -- -- 59
2020-01-10 14:00:00 10.5 10 Nordeste 25 Nordeste 0 -- -- 79
2020-01-10 13:00:00 9.6 4 Nordeste 20 Sudeste 0 -- -- 92
2020-01-10 12:00:00 8.9 2 Este 11 Sudeste 0 -- -- 99
2020-01-10 11:00:00 8.4 8 Sudeste 12 Sudeste 0 -- -- 99
2020-01-10 10:00:00 9 0 Calma 4 Sudeste 0 -- -- 98
2020-01-10 09:00:00 8.5 2 Sur 8 Noroeste 0 -- -- 98
2020-01-10 08:00:00 8.7 0 Calma 6 Noroeste 0 -- -- 95
2020-01-10 07:00:00 8.9 0 Calma 4 Noroeste 0 -- -- 93
2020-01-10 06:00:00 8.7 0 Calma 8 Norte 0 -- -- 93
2020-01-10 05:00:00 8.6 3 Este 9 Sudeste 0 -- -- 97
2020-01-10 04:00:00 8.2 6 Noroeste 12 Norte 0 -- -- 98
2020-01-10 03:00:00 8.5 9 Noroeste 13 Noroeste 0 -- -- 96
2020-01-10 02:00:00 9 6 Noroeste 17 Noroeste 0 -- -- 91
2020-01-10 01:00:00 9 8 Noroeste 15 Noroeste 0 -- -- 89
2020-01-10 00:00:00 8.4 5 Noroeste 10 Noroeste 0 -- -- 85
2020-01-09 23:00:00 8.4 6 Noroeste 13 Noroeste 0 -- -- 85
2020-01-09 22:00:00 8.5 8 Noroeste 12 Norte 0 -- -- 83
2020-01-09 21:00:00 9.5 5 Noroeste 9 Noroeste 0 -- -- 80
2020-01-09 20:00:00 9.2 4 Noroeste 7 Noroeste 0 -- -- 81
2020-01-09 19:00:00 10 5 Norte 8 Norte 0 -- -- 71
2020-01-09 18:00:00 12.6 0 Calma 14 Noroeste 0 -- -- 62
2020-01-09 17:00:00 12.7 10 Noroeste 19 Noroeste 0 -- -- 60
2020-01-09 16:00:00 14.1 10 Noroeste 18 Norte 0 -- -- 56
2020-01-09 15:00:00 14.6 4 Noroeste 15 Oeste 0 -- -- 53
2020-01-09 14:00:00 13.1 9 Oeste 20 Noroeste 0 -- -- 57
2020-01-09 13:00:00 12.4 12 Oeste 21 Oeste 0 -- -- 60
2020-01-09 12:00:00 11.6 12 Noroeste 18 Oeste 0 -- -- 59
2020-01-09 11:00:00 10.6 4 Oeste 6 Noroeste 0 -- -- 61
2020-01-09 10:00:00 9.6 0 Calma 6 Noroeste 0 -- -- 62
2020-01-09 09:00:00 8.7 2 Noroeste 9 Noroeste 0 -- -- 61
2020-01-09 08:00:00 8.8 0 Calma 8 Nordeste 0 -- -- 62
2020-01-09 07:00:00 9.1 0 Calma 6 Sudeste 0 -- -- 61
2020-01-09 06:00:00 8.6 6 Nordeste 11 Este 0 -- -- 63
2020-01-09 05:00:00 9.2 2 Sudeste 10 Norte 0 -- -- 61
2020-01-09 04:00:00 9.1 4 Noroeste 12 Norte 0 -- -- 63
2020-01-09 03:00:00 9.1 9 Norte 15 Norte 0 -- -- 65
2020-01-09 02:00:00 10.1 11 Norte 14 Norte 0 -- -- 56
2020-01-09 01:00:00 10.9 6 Noroeste 14 Noroeste 0 -- -- 52
2020-01-09 00:00:00 11.4 8 Noroeste 19 Noroeste 0 -- -- 49
2020-01-08 23:00:00 12.9 0 Calma 8 Noroeste 0 -- -- 37
2020-01-08 22:00:00 13.1 7 Norte 9 Norte 0 -- -- 36
2020-01-08 21:00:00 13.4 3 Norte 6 Norte 0 -- -- 33
2020-01-08 20:00:00 14.2 5 Nordeste 8 Este 0 -- -- 29
2020-01-08 19:00:00 12.8 8 Este 10 Este 0 -- -- 33
2020-01-08 18:00:00 17 0 Calma 11 Este 0 -- -- 33
2020-01-08 17:00:00 18.7 8 Este 15 Sudeste 0 -- -- 28
2020-01-08 16:00:00 19 8 Sudeste 13 Sudeste 0 -- -- 28
2020-01-08 15:00:00 18 3 Sudoeste 11 Noroeste 0 -- -- 37
2020-01-08 14:00:00 16.4 5 Oeste 9 Oeste 0 -- -- 40
2020-01-08 13:00:00 16 4 Oeste 8 Oeste 0 -- -- 39
2020-01-08 12:00:00 15.6 4 Noroeste 6 Noroeste 0 -- -- 38
2020-01-08 11:00:00 14 2 Oeste 7 Este 0 -- -- 39
2020-01-08 10:00:00 13.5 4 Sudeste 9 Este 0 -- -- 38
2020-01-08 09:00:00 11.1 9 Este 14 Este 0 -- -- 41
2020-01-08 08:00:00 11.5 9 Este 16 Este 0 -- -- 41
2020-01-08 07:00:00 11.4 10 Este 21 Este 0 -- -- 41
2020-01-08 06:00:00 11.3 11 Este 17 Este 0 -- -- 40
2020-01-08 05:00:00 10.7 13 Este 16 Este 0 -- -- 39
2020-01-08 04:00:00 10.7 14 Este 15 Este 0 -- -- 39
2020-01-08 03:00:00 10.3 10 Este 13 Este 0 -- -- 38
2020-01-08 02:00:00 12 0 Calma 6 Nordeste 0 -- -- 34
2020-01-08 01:00:00 13 0 Calma 4 Este 0 -- -- 32
2020-01-08 00:00:00 13.7 0 Calma 3 Sudeste 0 -- -- 31
2020-01-07 23:00:00 12.8 3 Sudeste 8 Sudeste 0 -- -- 33
2020-01-07 22:00:00 12.7 6 Este 12 Este 0 -- -- 33
2020-01-07 21:00:00 12.7 10 Sudeste 12 Sudeste 0 -- -- 34
2020-01-07 20:00:00 12.7 6 Este 9 Este 0 -- -- 34
2020-01-07 19:00:00 13.8 0 Calma 4 Este 0 -- -- 33
2020-01-07 18:00:00 15.5 3 Noroeste 7 Sudeste 0 -- -- 42
2020-01-07 17:00:00 16.5 3 Sudoeste 9 Oeste 0 -- -- 40
2020-01-07 16:00:00 17 3 Oeste 13 Oeste 0 -- -- 40
2020-01-07 15:00:00 16.3 8 Noroeste 14 Oeste 0 -- -- 42
2020-01-07 14:00:00 15.9 5 Oeste 11 Oeste 0 -- -- 41
2020-01-07 13:00:00 16.4 7 Oeste 12 Noroeste 0 -- -- 39
2020-01-07 12:00:00 15.5 2 Oeste 6 Sudeste 0 -- -- 41
2020-01-07 11:00:00 12.5 2 Noroeste 12 Sudeste 0 -- -- 55
2020-01-07 10:00:00 12 4 Este 8 Norte 0 -- -- 55
2020-01-07 09:00:00 9.4 3 Norte 13 Norte 0 -- -- 58
2020-01-07 08:00:00 10.2 0 Calma 17 Este 0 -- -- 55
2020-01-07 07:00:00 8.3 0 Calma 18 Este 0 -- -- 69
2020-01-07 06:00:00 8.1 5 Este 13 Nordeste 0 -- -- 70
2020-01-07 05:00:00 9.8 3 Nordeste 20 Este 0 -- -- 59
2020-01-07 04:00:00 9.1 16 Este 22 Este 0 -- -- 67
2020-01-07 03:00:00 7.9 15 Este 21 Este 0 -- -- 70
2020-01-07 02:00:00 8.5 0 Calma 13 Nordeste 0 -- -- 71
2020-01-07 01:00:00 9.4 2 Este 5 Este 0 -- -- 64
2020-01-07 00:00:00 10.5 0 Calma 5 Sudeste 0 -- -- 60
2020-01-06 23:00:00 10.6 4 Noroeste 8 Noroeste 0 -- -- 57
2020-01-06 22:00:00 10.7 2 Norte 13 Este 0 -- -- 52
2020-01-06 21:00:00 9.7 9 Este 21 Este 0 -- -- 70
2020-01-06 20:00:00 9.1 8 Este 15 Este 0 -- -- 80
2020-01-06 19:00:00 9.2 9 Este 11 Este 0 -- -- 78
2020-01-06 18:00:00 12.1 5 Oeste 9 Oeste 0 -- -- 63
2020-01-06 17:00:00 14.3 3 Sudoeste 13 Noroeste 0 -- -- 59
2020-01-06 16:00:00 14.2 6 Noroeste 12 Noroeste 0 -- -- 56
2020-01-06 15:00:00 14.4 3 Oeste 12 Noroeste 0 -- -- 59
2020-01-06 14:00:00 13.7 3 Sudoeste 12 Oeste 0 -- -- 65
2020-01-06 13:00:00 11.6 6 Noroeste 17 Noroeste 0 -- -- 77
2020-01-06 12:00:00 11.3 6 Oeste 10 Oeste 0 -- -- 79
2020-01-06 11:00:00 10.6 5 Noroeste 8 Noroeste 0 -- -- 80
2020-01-06 10:00:00 9.4 3 Este 8 Nordeste 0 -- -- 93